sensor_id;sensor_type;location;lat;lon;timestamp;P1;durP1;ratioP1;P2;durP2;ratioP2
50651;SDS011;66928;52.086;5.240;2023-05-20T05:40:48;5.3;;;4.41;;
50651;SDS011;66928;52.086;5.240;2023-05-20T05:42:24;6.8;;;5.0;;
50651;SDS011;66928;52.086;5.240;2023-05-20T05:45:37;8.5;;;5.0;;
50651;SDS011;66928;52.086;5.240;2023-05-20T05:47:14;7.6;;;5.0;;
50651;SDS011;66928;52.086;5.240;2023-05-20T05:48:50;6.8;;;4.7;;
50651;SDS011;66928;52.086;5.240;2023-05-20T05:50:26;7.4;;;4.3;;
50651;SDS011;66928;52.086;5.240;2023-05-20T05:53:39;9.21;;;4.5;;
50651;SDS011;66928;52.086;5.240;2023-05-20T05:55:15;6.6;;;4.41;;
50651;SDS011;66928;52.086;5.240;2023-05-20T05:56:51;8.81;;;4.91;;
50651;SDS011;66928;52.086;5.240;2023-05-20T06:00:05;8.6;;;4.91;;
50651;SDS011;66928;52.086;5.240;2023-05-20T06:01:43;6.8;;;4.7;;
50651;SDS011;66928;52.086;5.240;2023-05-20T06:03:19;7.8;;;4.61;;
50651;SDS011;66928;52.086;5.240;2023-05-20T06:06:32;9.21;;;4.7;;
50651;SDS011;66928;52.086;5.240;2023-05-20T06:08:08;6.8;;;4.1;;
50651;SDS011;66928;52.086;5.240;2023-05-20T06:09:45;6.8;;;4.2;;
50651;SDS011;66928;52.086;5.240;2023-05-20T06:11:21;6.0;;;4.2;;
50651;SDS011;66928;52.086;5.240;2023-05-20T06:14:33;7.1;;;4.41;;
50651;SDS011;66928;52.086;5.240;2023-05-20T06:16:09;5.9;;;4.3;;
50651;SDS011;66928;52.086;5.240;2023-05-20T06:17:45;8.6;;;4.61;;
50651;SDS011;66928;52.086;5.240;2023-05-20T06:20:58;6.9;;;4.41;;
50651;SDS011;66928;52.086;5.240;2023-05-20T06:22:35;6.2;;;4.7;;
50651;SDS011;66928;52.086;5.240;2023-05-20T06:24:11;7.7;;;4.3;;
50651;SDS011;66928;52.086;5.240;2023-05-20T06:27:25;7.9;;;4.61;;
50651;SDS011;66928;52.086;5.240;2023-05-20T06:29:01;6.9;;;4.3;;
50651;SDS011;66928;52.086;5.240;2023-05-20T06:30:37;6.6;;;4.7;;
50651;SDS011;66928;52.086;5.240;2023-05-20T06:32:13;8.0;;;4.0;;
50651;SDS011;66928;52.086;5.240;2023-05-20T06:35:26;5.3;;;4.3;;
50651;SDS011;66928;52.086;5.240;2023-05-20T06:37:02;5.6;;;4.1;;
50651;SDS011;66928;52.086;5.240;2023-05-20T06:38:38;7.3;;;4.41;;
50651;SDS011;66928;52.086;5.240;2023-05-20T06:41:50;5.4;;;4.41;;
50651;SDS011;66928;52.086;5.240;2023-05-20T06:43:26;8.0;;;4.8;;
50651;SDS011;66928;52.086;5.240;2023-05-20T06:45:04;6.0;;;4.41;;
50651;SDS011;66928;52.086;5.240;2023-05-20T06:48:17;5.8;;;4.2;;
50651;SDS011;66928;52.086;5.240;2023-05-20T06:49:53;6.4;;;4.2;;
50651;SDS011;66928;52.086;5.240;2023-05-20T06:51:29;6.1;;;4.3;;
50651;SDS011;66928;52.086;5.240;2023-05-20T06:54:41;5.5;;;4.0;;
50651;SDS011;66928;52.086;5.240;2023-05-20T06:56:17;5.3;;;4.1;;
50651;SDS011;66928;52.086;5.240;2023-05-20T06:57:54;9.71;;;4.2;;
50651;SDS011;66928;52.086;5.240;2023-05-20T06:59:30;5.6;;;3.8;;
50651;SDS011;66928;52.086;5.240;2023-05-20T07:02:42;5.3;;;4.1;;
50651;SDS011;66928;52.086;5.240;2023-05-20T07:04:19;5.11;;;4.0;;
50651;SDS011;66928;52.086;5.240;2023-05-20T07:05:55;4.8;;;3.8;;
50651;SDS011;66928;52.086;5.240;2023-05-20T07:09:07;7.3;;;3.9;;
50651;SDS011;66928;52.086;5.240;2023-05-20T07:10:43;6.2;;;4.2;;
50651;SDS011;66928;52.086;5.240;2023-05-20T07:12:20;6.2;;;4.0;;
50651;SDS011;66928;52.086;5.240;2023-05-20T07:15:33;5.6;;;4.0;;
50651;SDS011;66928;52.086;5.240;2023-05-20T07:17:09;4.61;;;3.7;;
50651;SDS011;66928;52.086;5.240;2023-05-20T07:18:46;5.8;;;3.9;;
50651;SDS011;66928;52.086;5.240;2023-05-20T07:20:22;5.7;;;3.8;;
50651;SDS011;66928;52.086;5.240;2023-05-20T07:23:35;5.2;;;3.5;;
50651;SDS011;66928;52.086;5.240;2023-05-20T07:25:11;6.7;;;3.5;;
50651;SDS011;66928;52.086;5.240;2023-05-20T07:26:47;5.0;;;3.3;;
50651;SDS011;66928;52.086;5.240;2023-05-20T07:29:59;4.0;;;3.5;;
50651;SDS011;66928;52.086;5.240;2023-05-20T07:31:35;7.8;;;3.5;;
50651;SDS011;66928;52.086;5.240;2023-05-20T07:33:12;6.8;;;3.3;;
50651;SDS011;66928;52.086;5.240;2023-05-20T07:36:25;6.2;;;3.4;;
50651;SDS011;66928;52.086;5.240;2023-05-20T07:38:01;4.91;;;3.6;;
50651;SDS011;66928;52.086;5.240;2023-05-20T07:39:37;5.7;;;3.3;;
50651;SDS011;66928;52.086;5.240;2023-05-20T07:41:14;5.9;;;3.3;;
50651;SDS011;66928;52.086;5.240;2023-05-20T07:44:26;4.7;;;3.3;;
50651;SDS011;66928;52.086;5.240;2023-05-20T07:46:02;4.2;;;2.9;;
50651;SDS011;66928;52.086;5.240;2023-05-20T07:47:39;4.0;;;3.0;;
50651;SDS011;66928;52.086;5.240;2023-05-20T07:50:51;4.41;;;2.9;;
50651;SDS011;66928;52.086;5.240;2023-05-20T07:52:28;3.7;;;2.8;;
50651;SDS011;66928;52.086;5.240;2023-05-20T07:54:04;4.3;;;2.8;;
50651;SDS011;66928;52.086;5.240;2023-05-20T07:57:17;5.2;;;3.0;;
50651;SDS011;66928;52.086;5.240;2023-05-20T07:58:54;4.61;;;3.0;;
50651;SDS011;66928;52.086;5.240;2023-05-20T08:00:32;4.0;;;3.0;;
50651;SDS011;66928;52.086;5.240;2023-05-20T08:02:08;4.61;;;3.0;;
50651;SDS011;66928;52.086;5.240;2023-05-20T08:05:20;4.41;;;2.9;;
50651;SDS011;66928;52.086;5.240;2023-05-20T08:06:56;5.4;;;2.7;;
50651;SDS011;66928;52.086;5.240;2023-05-20T08:08:32;4.1;;;2.8;;
50651;SDS011;66928;52.086;5.240;2023-05-20T08:11:46;7.9;;;2.4;;
50651;SDS011;66928;52.086;5.240;2023-05-20T08:13:22;7.9;;;2.4;;
50651;SDS011;66928;52.086;5.240;2023-05-20T08:15:00;5.8;;;2.7;;
50651;SDS011;66928;52.086;5.240;2023-05-20T08:18:13;5.2;;;2.4;;
50651;SDS011;66928;52.086;5.240;2023-05-20T08:19:49;4.61;;;2.8;;
50651;SDS011;66928;52.086;5.240;2023-05-20T08:21:25;3.8;;;2.7;;
50651;SDS011;66928;52.086;5.240;2023-05-20T08:24:37;5.2;;;2.9;;
50651;SDS011;66928;52.086;5.240;2023-05-20T08:26:13;4.3;;;2.7;;
50651;SDS011;66928;52.086;5.240;2023-05-20T08:27:50;4.5;;;2.9;;
50651;SDS011;66928;52.086;5.240;2023-05-20T08:29:26;5.4;;;2.6;;
50651;SDS011;66928;52.086;5.240;2023-05-20T08:32:38;4.41;;;2.6;;
50651;SDS011;66928;52.086;5.240;2023-05-20T08:34:14;4.41;;;2.5;;
50651;SDS011;66928;52.086;5.240;2023-05-20T08:35:50;5.6;;;2.7;;
50651;SDS011;66928;52.086;5.240;2023-05-20T08:39:03;5.11;;;2.5;;
50651;SDS011;66928;52.086;5.240;2023-05-20T08:40:39;4.8;;;2.7;;
50651;SDS011;66928;52.086;5.240;2023-05-20T08:42:18;3.0;;;2.31;;
50651;SDS011;66928;52.086;5.240;2023-05-20T08:45:36;4.2;;;2.5;;
50651;SDS011;66928;52.086;5.240;2023-05-20T08:47:13;4.2;;;2.31;;
50651;SDS011;66928;52.086;5.240;2023-05-20T08:48:49;4.8;;;2.21;;
50651;SDS011;66928;52.086;5.240;2023-05-20T08:50:25;7.0;;;2.21;;
50651;SDS011;66928;52.086;5.240;2023-05-20T08:53:39;3.3;;;2.21;;
50651;SDS011;66928;52.086;5.240;2023-05-20T08:55:16;4.1;;;2.21;;
50651;SDS011;66928;52.086;5.240;2023-05-20T08:57:01;4.2;;;2.0;;
50651;SDS011;66928;52.086;5.240;2023-05-20T08:58:37;3.6;;;2.1;;
50651;SDS011;66928;52.086;5.240;2023-05-20T09:01:50;6.2;;;2.31;;
50651;SDS011;66928;52.086;5.240;2023-05-20T09:03:27;2.7;;;1.9;;
50651;SDS011;66928;52.086;5.240;2023-05-20T09:05:03;2.4;;;1.8;;
50651;SDS011;66928;52.086;5.240;2023-05-20T09:08:18;5.0;;;2.1;;
50651;SDS011;66928;52.086;5.240;2023-05-20T09:09:59;2.7;;;1.9;;
50651;SDS011;66928;52.086;5.240;2023-05-20T09:11:35;3.7;;;1.9;;
50651;SDS011;66928;52.086;5.240;2023-05-20T09:14:48;3.7;;;1.9;;
50651;SDS011;66928;52.086;5.240;2023-05-20T09:16:24;2.7;;;2.0;;
50651;SDS011;66928;52.086;5.240;2023-05-20T09:18:01;3.3;;;2.21;;
50651;SDS011;66928;52.086;5.240;2023-05-20T09:19:37;2.6;;;2.0;;
50651;SDS011;66928;52.086;5.240;2023-05-20T09:22:50;2.21;;;2.0;;
50651;SDS011;66928;52.086;5.240;2023-05-20T09:24:27;2.4;;;1.9;;
50651;SDS011;66928;52.086;5.240;2023-05-20T09:26:03;2.21;;;2.0;;
50651;SDS011;66928;52.086;5.240;2023-05-20T09:29:16;2.0;;;1.9;;
50651;SDS011;66928;52.086;5.240;2023-05-20T09:30:55;4.5;;;2.1;;
50651;SDS011;66928;52.086;5.240;2023-05-20T09:32:33;4.7;;;2.21;;
50651;SDS011;66928;52.086;5.240;2023-05-20T09:35:46;4.5;;;2.0;;
50651;SDS011;66928;52.086;5.240;2023-05-20T09:37:23;5.0;;;2.21;;
50651;SDS011;66928;52.086;5.240;2023-05-20T09:39:02;2.9;;;2.0;;
50651;SDS011;66928;52.086;5.240;2023-05-20T09:40:39;2.8;;;2.1;;
50651;SDS011;66928;52.086;5.240;2023-05-20T09:43:58;2.7;;;1.9;;
50651;SDS011;66928;52.086;5.240;2023-05-20T09:45:34;3.0;;;1.9;;
50651;SDS011;66928;52.086;5.240;2023-05-20T09:47:13;4.91;;;2.1;;
50651;SDS011;66928;52.086;5.240;2023-05-20T09:48:51;2.31;;;1.6;;
50651;SDS011;66928;52.086;5.240;2023-05-20T09:52:05;2.6;;;2.1;;
50651;SDS011;66928;52.086;5.240;2023-05-20T09:53:42;5.9;;;2.31;;
50651;SDS011;66928;52.086;5.240;2023-05-20T09:55:19;3.3;;;1.9;;
50651;SDS011;66928;52.086;5.240;2023-05-20T09:58:38;4.3;;;2.1;;
50651;SDS011;66928;52.086;5.240;2023-05-20T10:00:16;4.3;;;2.1;;
50651;SDS011;66928;52.086;5.240;2023-05-20T10:01:52;3.0;;;1.9;;
50651;SDS011;66928;52.086;5.240;2023-05-20T10:03:28;3.8;;;2.21;;
50651;SDS011;66928;52.086;5.240;2023-05-20T10:06:55;3.5;;;2.1;;
50651;SDS011;66928;52.086;5.240;2023-05-20T10:08:57;3.4;;;2.1;;
50651;SDS011;66928;52.086;5.240;2023-05-20T10:10:48;3.5;;;2.4;;
50651;SDS011;66928;52.086;5.240;2023-05-20T10:12:32;4.41;;;2.31;;
50651;SDS011;66928;52.086;5.240;2023-05-20T10:14:31;5.0;;;2.1;;
50651;SDS011;66928;52.086;5.240;2023-05-20T10:16:16;3.7;;;2.4;;
50651;SDS011;66928;52.086;5.240;2023-05-20T10:19:56;2.7;;;2.31;;
50651;SDS011;66928;52.086;5.240;2023-05-20T10:21:33;4.0;;;2.4;;
50651;SDS011;66928;52.086;5.240;2023-05-20T10:23:18;3.8;;;2.21;;
50651;SDS011;66928;52.086;5.240;2023-05-20T10:24:57;3.7;;;2.21;;
50651;SDS011;66928;52.086;5.240;2023-05-20T10:26:35;3.3;;;2.31;;
50651;SDS011;66928;52.086;5.240;2023-05-20T10:29:49;3.1;;;2.31;;
50651;SDS011;66928;52.086;5.240;2023-05-20T10:31:27;3.9;;;2.21;;
50651;SDS011;66928;52.086;5.240;2023-05-20T10:33:04;5.6;;;2.4;;
50651;SDS011;66928;52.086;5.240;2023-05-20T10:36:24;4.3;;;2.31;;
50651;SDS011;66928;52.086;5.240;2023-05-20T10:38:06;3.2;;;2.31;;
50651;SDS011;66928;52.086;5.240;2023-05-20T10:39:44;3.2;;;2.31;;
50651;SDS011;66928;52.086;5.240;2023-05-20T10:41:22;3.6;;;2.21;;
50651;SDS011;66928;52.086;5.240;2023-05-20T10:44:44;5.3;;;2.6;;
50651;SDS011;66928;52.086;5.240;2023-05-20T10:46:22;3.2;;;2.5;;
50651;SDS011;66928;52.086;5.240;2023-05-20T10:47:58;3.9;;;2.31;;
50651;SDS011;66928;52.086;5.240;2023-05-20T10:49:34;3.5;;;2.4;;
50651;SDS011;66928;52.086;5.240;2023-05-20T10:52:50;3.5;;;2.21;;
50651;SDS011;66928;52.086;5.240;2023-05-20T10:54:26;3.6;;;2.21;;
50651;SDS011;66928;52.086;5.240;2023-05-20T10:56:02;3.2;;;2.21;;
50651;SDS011;66928;52.086;5.240;2023-05-20T10:59:15;3.9;;;2.31;;
50651;SDS011;66928;52.086;5.240;2023-05-20T11:00:52;3.5;;;2.1;;
50651;SDS011;66928;52.086;5.240;2023-05-20T11:02:30;3.7;;;2.21;;
50651;SDS011;66928;52.086;5.240;2023-05-20T11:05:44;3.4;;;2.4;;
50651;SDS011;66928;52.086;5.240;2023-05-20T11:07:24;5.0;;;2.31;;
50651;SDS011;66928;52.086;5.240;2023-05-20T11:09:02;4.8;;;2.31;;
50651;SDS011;66928;52.086;5.240;2023-05-20T11:10:40;2.31;;;2.0;;
50651;SDS011;66928;52.086;5.240;2023-05-20T11:13:55;3.4;;;2.4;;
50651;SDS011;66928;52.086;5.240;2023-05-20T11:15:33;3.1;;;2.31;;
50651;SDS011;66928;52.086;5.240;2023-05-20T11:17:09;3.5;;;2.1;;
50651;SDS011;66928;52.086;5.240;2023-05-20T11:20:23;3.7;;;2.5;;
50651;SDS011;66928;52.086;5.240;2023-05-20T11:22:01;5.8;;;2.31;;
50651;SDS011;66928;52.086;5.240;2023-05-20T11:23:37;5.3;;;2.21;;
50651;SDS011;66928;52.086;5.240;2023-05-20T11:25:14;2.9;;;2.1;;
50651;SDS011;66928;52.086;5.240;2023-05-20T11:28:27;6.4;;;2.1;;
50651;SDS011;66928;52.086;5.240;2023-05-20T11:30:06;5.0;;;2.0;;
50651;SDS011;66928;52.086;5.240;2023-05-20T11:31:43;3.1;;;2.1;;
50651;SDS011;66928;52.086;5.240;2023-05-20T11:35:00;2.8;;;2.1;;
50651;SDS011;66928;52.086;5.240;2023-05-20T11:36:39;3.3;;;2.31;;
50651;SDS011;66928;52.086;5.240;2023-05-20T11:38:16;3.5;;;2.31;;
50651;SDS011;66928;52.086;5.240;2023-05-20T11:40:01;2.8;;;2.1;;
50651;SDS011;66928;52.086;5.240;2023-05-20T11:43:15;7.0;;;2.21;;
50651;SDS011;66928;52.086;5.240;2023-05-20T11:44:53;3.6;;;2.4;;
50651;SDS011;66928;52.086;5.240;2023-05-20T11:46:30;4.2;;;2.7;;
50651;SDS011;66928;52.086;5.240;2023-05-20T11:48:06;3.9;;;2.5;;
50651;SDS011;66928;52.086;5.240;2023-05-20T11:51:25;2.9;;;2.31;;
50651;SDS011;66928;52.086;5.240;2023-05-20T11:53:02;3.8;;;2.21;;
50651;SDS011;66928;52.086;5.240;2023-05-20T11:54:39;4.0;;;2.31;;
50651;SDS011;66928;52.086;5.240;2023-05-20T11:57:51;3.8;;;2.7;;
50651;SDS011;66928;52.086;5.240;2023-05-20T11:59:30;3.5;;;2.1;;
50651;SDS011;66928;52.086;5.240;2023-05-20T12:01:06;3.6;;;2.4;;
50651;SDS011;66928;52.086;5.240;2023-05-20T12:04:18;3.4;;;2.21;;
50651;SDS011;66928;52.086;5.240;2023-05-20T12:05:54;3.9;;;2.4;;
50651;SDS011;66928;52.086;5.240;2023-05-20T12:07:31;3.1;;;2.4;;
50651;SDS011;66928;52.086;5.240;2023-05-20T12:12:21;2.8;;;2.21;;
50651;SDS011;66928;52.086;5.240;2023-05-20T12:13:57;4.3;;;2.5;;
50651;SDS011;66928;52.086;5.240;2023-05-20T12:15:33;3.9;;;2.31;;
50651;SDS011;66928;52.086;5.240;2023-05-20T12:18:46;4.2;;;2.6;;
50651;SDS011;66928;52.086;5.240;2023-05-20T12:20:23;3.5;;;2.0;;
50651;SDS011;66928;52.086;5.240;2023-05-20T12:21:59;4.3;;;2.31;;
50651;SDS011;66928;52.086;5.240;2023-05-20T12:25:13;5.5;;;2.31;;
50651;SDS011;66928;52.086;5.240;2023-05-20T12:26:51;3.1;;;2.31;;
50651;SDS011;66928;52.086;5.240;2023-05-20T12:28:27;3.9;;;2.21;;
50651;SDS011;66928;52.086;5.240;2023-05-20T12:30:04;3.4;;;2.31;;
50651;SDS011;66928;52.086;5.240;2023-05-20T12:33:18;3.4;;;2.4;;
50651;SDS011;66928;52.086;5.240;2023-05-20T12:34:54;3.1;;;2.31;;
50651;SDS011;66928;52.086;5.240;2023-05-20T12:36:30;4.3;;;2.4;;
50651;SDS011;66928;52.086;5.240;2023-05-20T12:39:45;4.41;;;2.5;;
50651;SDS011;66928;52.086;5.240;2023-05-20T12:41:21;3.7;;;2.31;;
50651;SDS011;66928;52.086;5.240;2023-05-20T12:42:58;4.8;;;2.31;;
50651;SDS011;66928;52.086;5.240;2023-05-20T12:44:35;4.7;;;2.5;;
50651;SDS011;66928;52.086;5.240;2023-05-20T12:47:49;3.8;;;2.1;;
50651;SDS011;66928;52.086;5.240;2023-05-20T12:49:25;3.1;;;2.21;;
50651;SDS011;66928;52.086;5.240;2023-05-20T12:51:01;5.3;;;2.5;;
50651;SDS011;66928;52.086;5.240;2023-05-20T12:54:13;2.31;;;2.1;;
50651;SDS011;66928;52.086;5.240;2023-05-20T12:55:52;4.3;;;2.1;;
50651;SDS011;66928;52.086;5.240;2023-05-20T12:57:28;3.8;;;2.31;;
50651;SDS011;66928;52.086;5.240;2023-05-20T13:00:40;4.8;;;2.21;;
50651;SDS011;66928;52.086;5.240;2023-05-20T13:02:17;3.6;;;2.0;;
50651;SDS011;66928;52.086;5.240;2023-05-20T13:03:54;4.3;;;2.31;;
50651;SDS011;66928;52.086;5.240;2023-05-20T13:05:30;3.2;;;2.1;;
50651;SDS011;66928;52.086;5.240;2023-05-20T13:08:42;3.4;;;2.31;;
50651;SDS011;66928;52.086;5.240;2023-05-20T13:10:18;4.2;;;2.31;;
50651;SDS011;66928;52.086;5.240;2023-05-20T13:11:55;3.5;;;2.21;;
50651;SDS011;66928;52.086;5.240;2023-05-20T13:15:07;3.6;;;2.31;;
50651;SDS011;66928;52.086;5.240;2023-05-20T13:16:44;4.3;;;2.21;;
50651;SDS011;66928;52.086;5.240;2023-05-20T13:18:20;3.7;;;2.4;;
50651;SDS011;66928;52.086;5.240;2023-05-20T13:21:33;3.8;;;2.0;;
50651;SDS011;66928;52.086;5.240;2023-05-20T13:23:09;5.5;;;2.31;;
50651;SDS011;66928;52.086;5.240;2023-05-20T13:24:45;2.31;;;2.1;;
50651;SDS011;66928;52.086;5.240;2023-05-20T13:27:58;4.3;;;2.21;;
50651;SDS011;66928;52.086;5.240;2023-05-20T13:29:34;4.5;;;2.21;;
50651;SDS011;66928;52.086;5.240;2023-05-20T13:31:10;4.5;;;2.31;;
50651;SDS011;66928;52.086;5.240;2023-05-20T13:32:46;6.0;;;2.1;;
50651;SDS011;66928;52.086;5.240;2023-05-20T13:35:59;2.4;;;2.21;;
50651;SDS011;66928;52.086;5.240;2023-05-20T13:37:35;5.4;;;2.4;;
50651;SDS011;66928;52.086;5.240;2023-05-20T13:39:11;4.5;;;2.1;;
50651;SDS011;66928;52.086;5.240;2023-05-20T13:42:24;6.8;;;2.7;;
50651;SDS011;66928;52.086;5.240;2023-05-20T13:44:00;4.0;;;2.4;;
50651;SDS011;66928;52.086;5.240;2023-05-20T13:45:36;3.9;;;2.1;;
50651;SDS011;66928;52.086;5.240;2023-05-20T13:48:49;3.2;;;2.31;;
50651;SDS011;66928;52.086;5.240;2023-05-20T13:50:25;2.6;;;2.1;;
50651;SDS011;66928;52.086;5.240;2023-05-20T13:52:01;2.8;;;2.0;;
50651;SDS011;66928;52.086;5.240;2023-05-20T13:53:37;3.2;;;2.1;;
50651;SDS011;66928;52.086;5.240;2023-05-20T13:56:49;5.4;;;2.31;;
50651;SDS011;66928;52.086;5.240;2023-05-20T13:58:28;3.7;;;2.21;;
50651;SDS011;66928;52.086;5.240;2023-05-20T14:00:05;3.3;;;2.1;;
50651;SDS011;66928;52.086;5.240;2023-05-20T14:03:17;3.3;;;2.1;;
50651;SDS011;66928;52.086;5.240;2023-05-20T14:04:54;2.4;;;1.8;;
50651;SDS011;66928;52.086;5.240;2023-05-20T14:06:30;4.7;;;2.21;;
50651;SDS011;66928;52.086;5.240;2023-05-20T14:09:42;3.0;;;2.21;;
50651;SDS011;66928;52.086;5.240;2023-05-20T14:11:18;4.5;;;2.1;;
50651;SDS011;66928;52.086;5.240;2023-05-20T14:12:56;3.8;;;2.0;;
50651;SDS011;66928;52.086;5.240;2023-05-20T14:14:33;4.5;;;2.1;;
50651;SDS011;66928;52.086;5.240;2023-05-20T14:17:46;4.0;;;2.21;;
50651;SDS011;66928;52.086;5.240;2023-05-20T14:19:22;4.3;;;2.1;;
50651;SDS011;66928;52.086;5.240;2023-05-20T14:20:59;5.4;;;1.9;;
50651;SDS011;66928;52.086;5.240;2023-05-20T14:24:11;3.8;;;2.1;;
50651;SDS011;66928;52.086;5.240;2023-05-20T14:25:47;4.5;;;2.1;;
50651;SDS011;66928;52.086;5.240;2023-05-20T14:27:24;5.3;;;2.21;;
50651;SDS011;66928;52.086;5.240;2023-05-20T14:30:36;3.9;;;1.9;;
50651;SDS011;66928;52.086;5.240;2023-05-20T14:32:12;2.4;;;2.0;;
50651;SDS011;66928;52.086;5.240;2023-05-20T14:35:24;2.21;;;2.0;;
50651;SDS011;66928;52.086;5.240;2023-05-20T14:37:00;2.9;;;2.1;;
50651;SDS011;66928;52.086;5.240;2023-05-20T14:38:37;3.7;;;2.0;;
50651;SDS011;66928;52.086;5.240;2023-05-20T14:40:13;3.3;;;1.9;;
50651;SDS011;66928;52.086;5.240;2023-05-20T14:41:50;2.21;;;1.9;;
50651;SDS011;66928;52.086;5.240;2023-05-20T14:45:02;2.31;;;2.0;;
50651;SDS011;66928;52.086;5.240;2023-05-20T14:46:40;3.5;;;2.4;;
50651;SDS011;66928;52.086;5.240;2023-05-20T14:48:17;3.5;;;1.9;;
50651;SDS011;66928;52.086;5.240;2023-05-20T14:51:30;6.1;;;2.31;;
50651;SDS011;66928;52.086;5.240;2023-05-20T14:53:06;3.2;;;2.31;;
50651;SDS011;66928;52.086;5.240;2023-05-20T14:54:42;5.4;;;2.0;;
50651;SDS011;66928;52.086;5.240;2023-05-20T14:57:56;2.7;;;1.9;;
50651;SDS011;66928;52.086;5.240;2023-05-20T14:59:32;2.5;;;1.9;;
50651;SDS011;66928;52.086;5.240;2023-05-20T15:01:08;4.1;;;2.1;;
50651;SDS011;66928;52.086;5.240;2023-05-20T15:02:44;5.7;;;2.31;;
50651;SDS011;66928;52.086;5.240;2023-05-20T15:05:57;3.1;;;2.1;;
50651;SDS011;66928;52.086;5.240;2023-05-20T15:07:33;3.4;;;2.0;;
50651;SDS011;66928;52.086;5.240;2023-05-20T15:09:09;3.0;;;1.9;;
50651;SDS011;66928;52.086;5.240;2023-05-20T15:12:21;3.1;;;2.0;;
50651;SDS011;66928;52.086;5.240;2023-05-20T15:13:57;3.7;;;2.21;;
50651;SDS011;66928;52.086;5.240;2023-05-20T15:15:34;3.4;;;2.21;;
50651;SDS011;66928;52.086;5.240;2023-05-20T15:18:46;3.6;;;2.31;;
50651;SDS011;66928;52.086;5.240;2023-05-20T15:20:22;4.5;;;2.1;;
50651;SDS011;66928;52.086;5.240;2023-05-20T15:21:58;9.5;;;2.6;;
50651;SDS011;66928;52.086;5.240;2023-05-20T15:23:34;3.2;;;2.31;;
50651;SDS011;66928;52.086;5.240;2023-05-20T15:26:47;3.2;;;2.0;;
50651;SDS011;66928;52.086;5.240;2023-05-20T15:28:23;3.1;;;1.9;;
50651;SDS011;66928;52.086;5.240;2023-05-20T15:29:59;2.7;;;1.9;;
50651;SDS011;66928;52.086;5.240;2023-05-20T15:33:12;3.1;;;2.21;;
50651;SDS011;66928;52.086;5.240;2023-05-20T15:34:48;2.0;;;1.8;;
50651;SDS011;66928;52.086;5.240;2023-05-20T15:36:24;5.3;;;2.31;;
50651;SDS011;66928;52.086;5.240;2023-05-20T15:39:36;6.3;;;2.4;;
50651;SDS011;66928;52.086;5.240;2023-05-20T15:41:12;5.11;;;3.0;;
50651;SDS011;66928;52.086;5.240;2023-05-20T15:42:49;5.9;;;3.5;;
50651;SDS011;66928;52.086;5.240;2023-05-20T15:46:01;4.1;;;2.4;;
50651;SDS011;66928;52.086;5.240;2023-05-20T15:47:38;3.6;;;2.4;;
50651;SDS011;66928;52.086;5.240;2023-05-20T15:49:14;4.3;;;2.5;;
50651;SDS011;66928;52.086;5.240;2023-05-20T15:50:50;4.7;;;2.21;;
50651;SDS011;66928;52.086;5.240;2023-05-20T15:54:03;2.7;;;2.21;;
50651;SDS011;66928;52.086;5.240;2023-05-20T15:55:39;4.0;;;2.5;;
50651;SDS011;66928;52.086;5.240;2023-05-20T15:57:16;3.7;;;2.1;;
50651;SDS011;66928;52.086;5.240;2023-05-20T16:00:29;5.11;;;2.31;;
50651;SDS011;66928;52.086;5.240;2023-05-20T16:02:05;2.9;;;1.9;;
50651;SDS011;66928;52.086;5.240;2023-05-20T16:03:41;3.2;;;2.21;;
50651;SDS011;66928;52.086;5.240;2023-05-20T16:06:54;5.9;;;2.31;;
50651;SDS011;66928;52.086;5.240;2023-05-20T16:08:31;3.1;;;1.9;;
50651;SDS011;66928;52.086;5.240;2023-05-20T16:10:07;3.8;;;2.1;;
50651;SDS011;66928;52.086;5.240;2023-05-20T16:11:44;3.6;;;2.1;;
50651;SDS011;66928;52.086;5.240;2023-05-20T16:14:57;3.9;;;2.4;;
50651;SDS011;66928;52.086;5.240;2023-05-20T16:16:33;2.9;;;2.0;;
50651;SDS011;66928;52.086;5.240;2023-05-20T16:18:10;6.4;;;2.31;;
50651;SDS011;66928;52.086;5.240;2023-05-20T16:21:23;4.2;;;2.31;;
50651;SDS011;66928;52.086;5.240;2023-05-20T16:22:59;4.3;;;2.1;;
50651;SDS011;66928;52.086;5.240;2023-05-20T16:24:35;6.3;;;2.1;;
50651;SDS011;66928;52.086;5.240;2023-05-20T16:27:48;5.8;;;2.1;;
50651;SDS011;66928;52.086;5.240;2023-05-20T16:29:24;2.8;;;1.8;;
50651;SDS011;66928;52.086;5.240;2023-05-20T16:31:00;2.7;;;2.1;;
50651;SDS011;66928;52.086;5.240;2023-05-20T16:32:36;3.9;;;2.1;;
50651;SDS011;66928;52.086;5.240;2023-05-20T16:35:50;3.9;;;2.1;;
50651;SDS011;66928;52.086;5.240;2023-05-20T16:37:27;3.6;;;2.1;;
50651;SDS011;66928;52.086;5.240;2023-05-20T16:39:03;4.3;;;2.1;;
50651;SDS011;66928;52.086;5.240;2023-05-20T16:42:15;2.7;;;2.0;;
50651;SDS011;66928;52.086;5.240;2023-05-20T16:43:51;5.5;;;2.0;;
50651;SDS011;66928;52.086;5.240;2023-05-20T16:45:27;2.7;;;1.9;;
50651;SDS011;66928;52.086;5.240;2023-05-20T16:48:41;2.1;;;1.8;;
50651;SDS011;66928;52.086;5.240;2023-05-20T16:50:17;4.0;;;2.31;;
50651;SDS011;66928;52.086;5.240;2023-05-20T16:51:53;6.0;;;2.31;;
50651;SDS011;66928;52.086;5.240;2023-05-20T16:53:29;2.5;;;1.9;;
50651;SDS011;66928;52.086;5.240;2023-05-20T16:56:42;3.7;;;2.0;;
50651;SDS011;66928;52.086;5.240;2023-05-20T16:58:18;3.1;;;1.8;;
50651;SDS011;66928;52.086;5.240;2023-05-20T16:59:54;5.0;;;2.0;;
50651;SDS011;66928;52.086;5.240;2023-05-20T17:03:07;2.1;;;1.9;;
50651;SDS011;66928;52.086;5.240;2023-05-20T17:04:43;2.21;;;1.9;;
50651;SDS011;66928;52.086;5.240;2023-05-20T17:06:19;3.5;;;1.8;;
50651;SDS011;66928;52.086;5.240;2023-05-20T17:09:32;3.0;;;1.8;;
50651;SDS011;66928;52.086;5.240;2023-05-20T17:11:08;4.3;;;2.0;;
50651;SDS011;66928;52.086;5.240;2023-05-20T17:12:45;8.6;;;2.1;;
50651;SDS011;66928;52.086;5.240;2023-05-20T17:15:58;3.4;;;2.1;;
50651;SDS011;66928;52.086;5.240;2023-05-20T17:17:34;5.0;;;2.1;;
50651;SDS011;66928;52.086;5.240;2023-05-20T17:19:10;6.0;;;2.4;;
50651;SDS011;66928;52.086;5.240;2023-05-20T17:20:46;3.9;;;2.0;;
50651;SDS011;66928;52.086;5.240;2023-05-20T17:23:58;5.11;;;2.6;;
50651;SDS011;66928;52.086;5.240;2023-05-20T17:25:35;3.1;;;2.0;;
50651;SDS011;66928;52.086;5.240;2023-05-20T17:27:12;3.4;;;2.1;;
50651;SDS011;66928;52.086;5.240;2023-05-20T17:30:24;4.7;;;2.4;;
50651;SDS011;66928;52.086;5.240;2023-05-20T17:32:00;4.91;;;2.1;;
50651;SDS011;66928;52.086;5.240;2023-05-20T17:33:36;5.5;;;2.4;;
50651;SDS011;66928;52.086;5.240;2023-05-20T17:36:49;2.6;;;2.21;;
50651;SDS011;66928;52.086;5.240;2023-05-20T17:38:25;5.4;;;2.31;;
50651;SDS011;66928;52.086;5.240;2023-05-20T17:40:02;3.1;;;2.1;;
50651;SDS011;66928;52.086;5.240;2023-05-20T17:41:39;2.0;;;1.8;;
50651;SDS011;66928;52.086;5.240;2023-05-20T17:44:52;3.7;;;2.0;;
50651;SDS011;66928;52.086;5.240;2023-05-20T17:46:28;3.4;;;1.9;;
50651;SDS011;66928;52.086;5.240;2023-05-20T17:48:04;2.6;;;1.9;;
50651;SDS011;66928;52.086;5.240;2023-05-20T17:51:17;3.7;;;2.1;;
50651;SDS011;66928;52.086;5.240;2023-05-20T17:52:53;3.5;;;1.9;;
50651;SDS011;66928;52.086;5.240;2023-05-20T17:54:29;7.2;;;2.0;;
50651;SDS011;66928;52.086;5.240;2023-05-20T17:57:42;4.41;;;2.1;;
50651;SDS011;66928;52.086;5.240;2023-05-20T17:59:18;2.6;;;2.0;;
50651;SDS011;66928;52.086;5.240;2023-05-20T18:00:54;3.2;;;2.0;;
50651;SDS011;66928;52.086;5.240;2023-05-20T18:04:06;6.0;;;2.0;;
50651;SDS011;66928;52.086;5.240;2023-05-20T18:05:43;2.9;;;1.8;;
50651;SDS011;66928;52.086;5.240;2023-05-20T18:07:19;3.3;;;1.9;;
50651;SDS011;66928;52.086;5.240;2023-05-20T18:08:55;2.6;;;1.9;;
50651;SDS011;66928;52.086;5.240;2023-05-20T18:12:08;3.4;;;2.1;;
50651;SDS011;66928;52.086;5.240;2023-05-20T18:13:44;3.4;;;2.1;;
50651;SDS011;66928;52.086;5.240;2023-05-20T18:15:20;3.3;;;2.21;;
50651;SDS011;66928;52.086;5.240;2023-05-20T18:18:32;3.8;;;2.1;;
50651;SDS011;66928;52.086;5.240;2023-05-20T18:20:09;3.9;;;2.1;;
50651;SDS011;66928;52.086;5.240;2023-05-20T18:21:48;4.41;;;2.21;;
50651;SDS011;66928;52.086;5.240;2023-05-20T18:25:00;2.7;;;2.0;;
50651;SDS011;66928;52.086;5.240;2023-05-20T18:26:36;3.6;;;2.1;;
50651;SDS011;66928;52.086;5.240;2023-05-20T18:28:13;3.8;;;2.31;;
50651;SDS011;66928;52.086;5.240;2023-05-20T18:29:49;5.2;;;2.31;;
50651;SDS011;66928;52.086;5.240;2023-05-20T18:33:01;2.8;;;2.31;;
50651;SDS011;66928;52.086;5.240;2023-05-20T18:34:38;3.8;;;2.31;;
50651;SDS011;66928;52.086;5.240;2023-05-20T18:36:14;3.0;;;2.21;;